Time;durP1;ratioP1;P1;durP2;ratioP2;P2;SDS_P1;SDS_P2;PMS_P1;PMS_P2;Temp;Humidity;BMP_temperature;BMP_pressure;BME280_temperature;BME280_humidity;BME280_pressure;Samples;Min_cycle;Max_cycle;Signal;HPM_P1;HPM_P2
2022/05/16 00:02:56;;;;;;;8.78;2.42;;;;;;;9.35;66.82;100999.78;3775557;76;98894;-86
2022/05/16 00:07:57;;;;;;;6.45;2.45;;;;;;;9.29;67.12;101002.57;3746143;77;32984;-86
2022/05/16 00:13:00;;;;;;;8.03;2.53;;;;;;;9.22;67.19;101003.18;3783997;77;98409;-87
2022/05/16 00:18:05;;;;;;;6.00;2.40;;;;;;;9.14;67.66;101006.91;3774983;77;98885;-86
2022/05/16 00:23:06;;;;;;;10.10;3.05;;;;;;;9.02;67.95;101013.86;3755186;76;98691;-86
2022/05/16 00:28:07;;;;;;;5.70;1.97;;;;;;;8.93;67.96;101008.28;3770766;77;98990;-86
2022/05/16 00:33:08;;;;;;;13.48;3.12;;;;;;;8.83;68.44;101011.56;3776630;75;98437;-87
2022/05/16 00:38:11;;;;;;;6.83;2.37;;;;;;;8.77;68.38;101015.12;3797312;76;26701;-86
2022/05/16 00:43:13;;;;;;;7.33;2.65;;;;;;;8.65;68.97;101017.92;3777865;77;98361;-87
2022/05/16 00:48:14;;;;;;;5.65;2.42;;;;;;;8.58;69.55;101024.59;3760986;77;98467;-87
2022/05/16 00:53:16;;;;;;;9.40;2.87;;;;;;;8.50;70.20;101027.48;3780284;76;98459;-86
2022/05/16 00:58:19;;;;;;;12.13;3.17;;;;;;;8.41;70.47;101028.97;3781849;76;98811;-86
2022/05/16 01:08:43;;;;;;;6.85;2.12;;;;;;;8.27;70.11;101027.77;3769353;78;32470;-86
2022/05/16 01:13:44;;;;;;;8.58;2.90;;;;;;;8.18;70.41;101031.20;3765007;76;98537;-86
2022/05/16 01:18:46;;;;;;;10.47;3.03;;;;;;;8.12;70.80;101029.25;3775009;76;98857;-86
2022/05/16 01:23:55;;;;;;;9.17;2.47;;;;;;;8.06;71.06;101035.31;3803154;76;99003;-86
2022/05/16 01:29:02;;;;;;;5.37;2.58;;;;;;;7.96;71.00;101038.55;3756430;77;98763;-86
2022/05/16 01:34:04;;;;;;;8.10;2.55;;;;;;;7.90;71.68;101047.56;3757203;76;98756;-86
2022/05/16 01:39:05;;;;;;;8.00;2.35;;;;;;;7.80;71.50;101048.02;3786966;77;98914;-86
2022/05/16 01:44:31;;;;;;;10.55;2.90;;;;;;;7.75;71.66;101046.87;3749677;78;97992;-86
2022/05/16 01:49:28;;;;;;;7.62;2.05;;;;;;;7.70;71.42;101050.43;3727020;78;98538;-86
2022/05/16 01:54:30;;;;;;;8.15;2.25;;;;;;;7.64;71.74;101051.22;3717401;77;98102;-87
2022/05/16 01:59:32;;;;;;;6.87;2.10;;;;;;;7.56;71.55;101053.51;3763195;76;98835;-86
2022/05/16 02:04:33;;;;;;;6.93;2.03;;;;;;;7.49;71.62;101045.06;3779913;76;98710;-86
2022/05/16 02:09:34;;;;;;;7.00;2.10;;;;;;;7.42;72.62;101044.03;3763738;77;98802;-86
2022/05/16 02:14:35;;;;;;;7.43;2.60;;;;;;;7.33;73.12;101048.24;3741298;78;98203;-86
2022/05/16 02:19:37;;;;;;;6.80;2.00;;;;;;;7.25;72.95;101040.91;3720062;78;98249;-85
2022/05/16 02:24:42;;;;;;;7.20;2.53;;;;;;;7.19;73.10;101042.27;3735038;78;98385;-85
2022/05/16 02:29:44;;;;;;;7.10;2.27;;;;;;;7.11;72.79;101045.92;3704201;78;98725;-86
2022/05/16 02:34:45;;;;;;;7.20;2.60;;;;;;;7.07;72.78;101049.09;3710539;78;98450;-85
2022/05/16 02:39:46;;;;;;;7.37;2.50;;;;;;;7.00;73.37;101044.75;3743862;78;98445;-86
2022/05/16 02:44:48;;;;;;;9.60;2.50;;;;;;;6.96;73.30;101041.08;3724645;78;98322;-86
2022/05/16 02:49:51;;;;;;;7.30;2.17;;;;;;;6.93;73.54;101042.33;3732955;78;98687;-86
2022/05/16 02:54:52;;;;;;;7.10;2.30;;;;;;;6.89;73.84;101043.58;3723210;78;98649;-85
2022/05/16 02:59:54;;;;;;;7.70;3.00;;;;;;;6.83;73.81;101031.22;3731875;78;98614;-85
2022/05/16 03:04:55;;;;;;;5.78;2.22;;;;;;;6.78;74.29;101028.72;3752712;77;98494;-85
2022/05/16 03:09:56;;;;;;;10.17;2.47;;;;;;;6.72;74.55;101030.04;3738473;77;98409;-86
2022/05/16 03:14:57;;;;;;;5.80;2.20;;;;;;;6.70;74.57;101035.06;3709958;78;98779;-85
2022/05/16 03:20:00;;;;;;;7.10;3.07;;;;;;;6.66;75.22;101030.02;3712522;78;26347;-86
2022/05/16 03:25:02;;;;;;;4.58;2.00;;;;;;;6.64;74.93;101027.39;3690843;78;98235;-85
2022/05/16 03:30:07;;;;;;;6.58;2.20;;;;;;;6.61;76.12;101023.39;3702547;79;98429;-86
2022/05/16 03:35:08;;;;;;;7.05;2.47;;;;;;;6.59;76.56;101024.86;3686657;78;98861;-85
2022/05/16 03:45:30;;;;;;;6.10;2.27;;;;;;;6.60;75.96;101022.39;3700430;78;98425;-85
2022/05/16 03:50:32;;;;;;;7.63;2.50;;;;;;;6.63;76.31;101014.30;3704221;78;25991;-84
2022/05/16 03:55:33;;;;;;;6.50;2.50;;;;;;;6.67;76.50;101024.00;3707325;77;98594;-87
2022/05/16 04:00:34;;;;;;;10.00;3.13;;;;;;;6.72;76.77;101023.80;3718253;78;98328;-86
2022/05/16 04:05:36;;;;;;;11.22;3.15;;;;;;;6.78;77.26;101020.52;3715381;78;98660;-86
2022/05/16 04:10:37;;;;;;;12.30;3.33;;;;;;;6.86;79.58;101014.70;3712411;78;99086;-86
2022/05/16 04:15:38;;;;;;;12.43;3.20;;;;;;;6.92;79.61;101012.79;3718784;78;98939;-86
2022/05/16 04:20:39;;;;;;;9.00;3.30;;;;;;;7.00;80.17;101015.20;3719840;77;98696;-86
2022/05/16 04:25:40;;;;;;;13.93;4.50;;;;;;;7.08;80.45;101021.14;3711071;78;98233;-86
2022/05/16 04:30:41;;;;;;;15.30;5.47;;;;;;;7.16;79.90;101025.17;3713165;78;98594;-85
2022/05/16 04:35:42;;;;;;;12.57;4.60;;;;;;;7.27;80.99;101022.23;3721459;79;98591;-86
2022/05/16 04:46:07;;;;;;;12.35;3.92;;;;;;;7.45;81.28;101018.69;3705080;78;99035;-86
2022/05/16 04:51:08;;;;;;;13.22;4.45;;;;;;;7.60;81.44;101018.82;3712228;77;98615;-84
2022/05/16 04:56:09;;;;;;;11.03;4.00;;;;;;;7.84;83.44;101017.42;3725469;78;25928;-86
2022/05/16 05:01:10;;;;;;;11.88;4.30;;;;;;;8.10;82.18;101012.37;3690920;78;98466;-84
2022/05/16 05:06:12;;;;;;;12.27;4.60;;;;;;;8.54;84.86;101008.59;3736093;78;98597;-85
2022/05/16 05:16:33;;;;;;;13.80;5.43;;;;;;;9.11;81.34;101022.70;3723572;75;98645;-86
2022/05/16 05:21:34;;;;;;;14.53;4.10;;;;;;;9.37;81.50;101024.96;3712828;78;98657;-85
2022/05/16 05:26:37;;;;;;;12.80;4.23;;;;;;;9.79;81.86;101046.03;3690327;79;26149;-84
2022/05/16 05:31:39;;;;;;;13.88;4.80;;;;;;;10.29;80.63;101036.41;3712947;77;98733;-83
2022/05/16 05:36:42;;;;;;;13.00;3.87;;;;;;;10.99;80.18;101034.29;3715970;78;99090;-83
2022/05/16 05:41:45;;;;;;;11.00;4.10;;;;;;;11.80;78.85;101035.95;3702280;77;99828;-83
2022/05/16 05:46:46;;;;;;;12.58;3.92;;;;;;;12.62;76.81;101032.59;3709558;77;99508;-82
2022/05/16 05:51:47;;;;;;;11.12;4.25;;;;;;;13.49;73.82;101029.19;3703260;77;99087;-83
2022/05/16 05:56:48;;;;;;;14.23;4.10;;;;;;;14.39;73.26;101028.28;3729775;78;31604;-83
2022/05/16 06:01:50;;;;;;;19.00;4.65;;;;;;;15.36;70.03;101020.89;3726066;77;98972;-83
2022/05/16 06:06:51;;;;;;;11.93;4.12;;;;;;;16.04;68.42;101026.05;3732581;78;98897;-83
2022/05/16 06:11:53;;;;;;;13.15;4.30;;;;;;;16.87;66.42;101023.39;3766080;76;99360;-84
2022/05/16 06:16:54;;;;;;;22.40;5.03;;;;;;;17.59;63.14;101025.54;3800321;76;99466;-83
2022/05/16 06:21:56;;;;;;;15.70;4.65;;;;;;;18.12;61.15;101025.05;3753473;76;99661;-81
2022/05/16 06:27:00;;;;;;;11.50;4.10;;;;;;;18.74;59.88;101030.54;3757124;78;99025;-81
2022/05/16 06:32:01;;;;;;;13.40;4.22;;;;;;;19.01;58.31;101019.45;3780101;77;98810;-81
2022/05/16 06:37:03;;;;;;;13.43;4.03;;;;;;;19.45;56.29;101008.05;3770677;76;98710;-82
2022/05/16 06:42:05;;;;;;;20.25;4.50;;;;;;;19.84;54.46;101013.77;3765401;76;99307;-82
2022/05/16 06:47:07;;;;;;;17.98;4.75;;;;;;;20.16;51.68;101013.40;3788049;77;99089;-82
2022/05/16 06:52:08;;;;;;;15.60;4.55;;;;;;;20.56;53.26;101012.23;3783443;77;99203;-82
2022/05/16 06:57:09;;;;;;;13.53;3.85;;;;;;;21.06;51.78;101008.58;3768259;76;99306;-83
2022/05/16 07:02:10;;;;;;;14.75;4.62;;;;;;;20.93;50.24;101009.67;3779372;76;98922;-82
2022/05/16 07:07:12;;;;;;;16.27;4.17;;;;;;;21.20;50.10;101006.83;3719156;78;98923;-82
2022/05/16 07:12:14;;;;;;;11.43;4.53;;;;;;;21.32;48.36;101006.17;3755229;77;99497;-83
2022/05/16 07:17:15;;;;;;;10.18;3.52;;;;;;;21.36;46.08;101011.05;3738789;76;98904;-83
2022/05/16 07:22:22;;;;;;;10.60;3.65;;;;;;;21.26;47.33;101018.31;3735236;77;99288;-82
2022/05/16 07:32:44;;;;;;;11.22;3.60;;;;;;;21.48;47.07;101009.59;3782499;77;98735;-82
2022/05/16 07:37:46;;;;;;;10.45;3.15;;;;;;;21.23;46.06;101021.38;3759964;78;98582;-82
2022/05/16 07:42:47;;;;;;;8.53;3.08;;;;;;;21.16;45.69;101026.34;3735995;76;99604;-83
2022/05/16 07:47:48;;;;;;;8.93;3.00;;;;;;;20.86;45.41;101027.36;3776751;76;99275;-82
2022/05/16 07:52:50;;;;;;;11.25;3.45;;;;;;;20.56;45.43;101029.01;3761140;76;98808;-82
2022/05/16 07:57:51;;;;;;;12.35;3.50;;;;;;;20.57;44.58;101029.78;3736183;76;99093;-82
2022/05/16 08:02:52;;;;;;;8.88;3.37;;;;;;;20.50;44.96;101031.33;3807948;76;98990;-82
2022/05/16 08:13:13;;;;;;;9.15;3.00;;;;;;;20.96;45.28;101037.58;3802616;75;98857;-81
2022/05/16 08:18:14;;;;;;;10.78;3.83;;;;;;;21.59;45.54;101032.53;3791198;74;99001;-80
2022/05/16 08:23:21;;;;;;;9.95;2.62;;;;;;;22.42;44.61;101036.58;3730536;77;99009;-81
2022/05/16 08:28:22;;;;;;;14.70;2.95;;;;;;;23.14;44.09;101029.86;3752005;77;99202;-82
2022/05/16 08:33:24;;;;;;;11.22;2.85;;;;;;;23.77;42.51;101023.00;3763655;77;99527;-82
2022/05/16 08:44:01;;;;;;;18.57;4.15;;;;;;;25.10;40.62;101016.79;3761634;77;99716;-83
2022/05/16 08:49:26;;;;;;;14.93;3.22;;;;;;;26.01;39.23;101004.61;3793843;76;98598;-82
2022/05/16 08:54:40;;;;;;;7.53;2.87;;;;;;;26.70;38.53;101002.72;3768514;77;99021;-82
2022/05/16 08:59:47;;;;;;;10.60;3.05;;;;;;;27.14;37.81;101012.33;3772521;76;98775;-82
2022/05/16 09:05:10;;;;;;;9.98;2.77;;;;;;;27.74;37.09;101008.00;3775830;76;99042;-82
2022/05/16 09:10:29;;;;;;;12.07;2.70;;;;;;;28.23;37.30;101002.66;3810451;74;99145;-81
2022/05/16 09:15:44;;;;;;;10.03;2.62;;;;;;;28.86;35.45;100997.81;3793062;76;99323;-84
2022/05/16 09:21:36;;;;;;;9.37;2.47;;;;;;;28.90;35.47;100996.37;3751735;76;98918;-83
2022/05/16 09:27:00;;;;;;;6.08;2.25;;;;;;;29.76;34.76;100988.22;3778121;76;28522;-82
2022/05/16 09:32:08;;;;;;;;;;;;;;;30.11;31.48;100989.74;3751260;77;99028;-82
2022/05/16 09:37:09;;;;;;;17.45;3.22;;;;;;;30.28;31.81;100983.61;3779772;76;85653;-82
2022/05/16 09:42:24;;;;;;;20.80;3.40;;;;;;;30.73;31.90;100982.06;3776704;77;99004;-82
2022/05/16 09:47:36;;;;;;;14.65;3.22;;;;;;;31.08;31.48;100976.30;3779647;76;99027;-83
2022/05/16 09:52:45;;;;;;;13.00;2.70;;;;;;;31.10;30.49;100974.34;3755931;76;99103;-82
2022/05/16 09:57:57;;;;;;;9.20;2.80;;;;;;;31.44;30.39;100976.20;3747871;78;100010;-81
2022/05/16 10:03:25;;;;;;;9.50;2.45;;;;;;;31.02;30.38;100969.00;3773263;76;98832;-83
2022/05/16 10:08:42;;;;;;;7.30;2.60;;;;;;;31.19;29.11;100967.88;3817941;76;97666;-84
2022/05/16 10:13:44;;;;;;;10.72;2.52;;;;;;;31.31;29.04;100967.30;3755465;77;99199;-83
2022/05/16 10:18:56;;;;;;;7.17;2.00;;;;;;;31.57;29.15;100971.63;3743991;76;99360;-82
2022/05/16 10:23:59;;;;;;;7.47;2.20;;;;;;;31.88;28.62;100978.66;3713009;78;100004;-83
2022/05/16 10:29:08;;;;;;;4.87;1.82;;;;;;;32.05;27.91;100975.89;3755889;77;99020;-82
2022/05/16 10:34:17;;;;;;;7.72;2.42;;;;;;;32.45;27.93;100979.16;3746389;78;98764;-82
2022/05/16 10:39:25;;;;;;;9.98;2.37;;;;;;;32.16;27.61;100975.30;3733893;78;27179;-83
2022/05/16 10:44:41;;;;;;;6.97;2.50;;;;;;;32.33;26.61;100979.64;3752312;77;99174;-82
2022/05/16 10:49:53;;;;;;;8.50;2.20;;;;;;;32.24;26.96;100974.13;3732291;77;98679;-84
2022/05/16 10:54:54;;;;;;;7.10;2.08;;;;;;;32.59;26.47;100968.16;3746796;77;98955;-82
2022/05/16 11:00:14;;;;;;;8.68;2.08;;;;;;;32.71;27.05;100958.35;3764514;76;99102;-82
2022/05/16 11:05:42;;;;;;;6.87;2.47;;;;;;;32.57;26.55;100956.51;3750886;77;98807;-82
2022/05/16 11:10:49;;;;;;;7.37;2.52;;;;;;;32.56;26.62;100947.83;3744054;76;98811;-84
2022/05/16 11:16:10;;;;;;;8.20;2.72;;;;;;;32.03;26.07;100946.50;3748726;77;98900;-82
2022/05/16 11:21:22;;;;;;;10.38;2.42;;;;;;;31.58;26.04;100939.03;3773449;76;99001;-83
2022/05/16 11:27:05;;;;;;;6.95;2.02;;;;;;;31.67;27.64;100928.86;3699170;78;98697;-85
2022/05/16 11:32:24;;;;;;;7.45;2.33;;;;;;;32.15;26.96;100927.38;3629044;80;99045;-84
2022/05/16 11:37:59;;;;;;;10.20;2.95;;;;;;;32.23;26.62;100912.13;3774518;77;98976;-83
2022/05/16 11:43:20;;;;;;;6.00;1.65;;;;;;;32.04;26.39;100916.72;3782019;77;99587;-83
2022/05/16 11:48:54;;;;;;;8.63;2.15;;;;;;;31.60;25.95;100916.52;3786978;76;98791;-83
2022/05/16 11:53:59;;;;;;;6.28;2.33;;;;;;;30.85;26.70;100916.25;3780317;77;98921;-84
2022/05/16 12:04:50;;;;;;;8.70;2.20;;;;;;;31.05;25.50;100901.18;3786477;76;99155;-83
2022/05/16 12:09:56;;;;;;;6.40;2.17;;;;;;;30.84;26.23;100899.73;3782847;78;99064;-83
2022/05/16 12:15:29;;;;;;;8.38;2.62;;;;;;;30.52;25.98;100879.00;3765077;77;98344;-84
2022/05/16 12:20:50;;;;;;;10.88;2.58;;;;;;;30.56;26.50;100883.06;3813085;76;98814;-82
2022/05/16 12:25:52;;;;;;;8.15;2.70;;;;;;;30.31;26.68;100895.22;3805241;76;98766;-83
2022/05/16 12:30:56;;;;;;;7.53;2.70;;;;;;;30.34;26.67;100879.36;3798311;76;99106;-85
2022/05/16 12:35:57;;;;;;;;;;;;;;;30.45;26.51;100882.97;3795221;76;98754;-84
2022/05/16 12:41:47;;;;;;;7.42;2.40;;;;;;;30.16;29.20;100872.61;3799774;76;85004;-83
2022/05/16 12:47:13;;;;;;;6.05;2.33;;;;;;;30.44;27.13;100856.61;3819735;75;98836;-84
2022/05/16 12:53:04;;;;;;;8.90;2.42;;;;;;;30.54;28.27;100850.88;3828571;76;99034;-85
2022/05/16 12:58:32;;;;;;;5.35;2.00;;;;;;;30.65;27.36;100841.66;3830376;76;99317;-84
2022/05/16 13:04:03;;;;;;;6.25;2.50;;;;;;;30.18;26.63;100840.88;3824888;76;98752;-84
2022/05/16 13:09:31;;;;;;;9.48;1.80;;;;;;;29.87;27.72;100842.20;3846337;76;28453;-83
2022/05/16 13:14:42;;;;;;;6.35;1.67;;;;;;;30.14;27.23;100828.96;3836567;76;98723;-82
2022/05/16 13:19:47;;;;;;;8.43;1.87;;;;;;;29.93;26.92;100828.22;3829305;76;98600;-84
2022/05/16 13:24:54;;;;;;;;;;;;;;;29.37;26.59;100820.95;3844544;76;98852;-83
2022/05/16 13:29:56;;;;;;;11.53;2.15;;;;;;;29.36;27.99;100813.72;3833540;76;84315;-84
2022/05/16 13:35:01;;;;;;;5.20;1.82;;;;;;;29.25;26.70;100815.00;3754549;76;98965;-83
2022/05/16 13:40:07;;;;;;;9.45;2.22;;;;;;;29.58;28.36;100814.78;3778428;76;98805;-83
2022/05/16 13:45:09;;;;;;;6.33;1.70;;;;;;;29.85;27.58;100808.64;3740992;76;98681;-83
2022/05/16 13:50:27;;;;;;;7.90;2.42;;;;;;;29.33;28.28;100798.48;3741808;78;98695;-83
2022/05/16 13:55:30;;;;;;;7.20;2.30;;;;;;;28.95;28.21;100799.34;3806511;76;98684;-85
2022/05/16 14:00:36;;;;;;;8.60;2.27;;;;;;;28.58;27.05;100789.77;3832281;76;98785;-83
2022/05/16 14:05:41;;;;;;;4.87;1.80;;;;;;;28.09;27.22;100786.87;3815835;76;98951;-83
2022/05/16 14:10:42;;;;;;;8.55;2.40;;;;;;;27.74;27.62;100788.78;3816242;76;98744;-82
2022/05/16 14:16:06;;;;;;;7.60;2.02;;;;;;;27.88;27.34;100784.58;3710953;78;98847;-84
2022/05/16 14:21:29;;;;;;;5.65;1.77;;;;;;;27.12;27.92;100784.55;3616210;79;98733;-84
2022/05/16 14:26:48;;;;;;;6.20;2.55;;;;;;;27.54;29.03;100775.30;3620607;80;98794;-83
2022/05/16 14:32:02;;;;;;;5.30;1.75;;;;;;;27.69;29.65;100787.39;3768777;76;98810;-83
2022/05/16 14:37:17;;;;;;;5.75;1.77;;;;;;;28.17;30.45;100781.73;3770380;77;99076;-83
2022/05/16 14:42:27;;;;;;;4.45;1.52;;;;;;;28.14;28.72;100777.07;3769037;77;99145;-84
2022/05/16 14:47:39;;;;;;;3.85;1.42;;;;;;;28.17;30.09;100761.92;3783088;78;99286;-84
2022/05/16 14:53:08;;;;;;;6.00;1.82;;;;;;;28.03;29.86;100755.66;3761741;77;99437;-83
2022/05/16 14:58:12;;;;;;;8.43;1.77;;;;;;;28.01;28.84;100749.69;3732806;78;98977;-83
2022/05/16 15:08:43;;;;;;;8.55;1.90;;;;;;;27.47;28.07;100747.38;3777690;76;98470;-88
2022/05/16 15:13:44;;;;;;;10.90;1.80;;;;;;;26.98;28.66;100749.17;3751398;76;99059;-83
2022/05/16 15:18:45;;;;;;;10.30;2.20;;;;;;;26.75;28.92;100733.78;3727100;76;99095;-86
2022/05/16 15:23:46;;;;;;;9.08;2.02;;;;;;;26.75;28.50;100740.08;3705782;78;99450;-84
2022/05/16 15:28:48;;;;;;;5.22;1.72;;;;;;;26.27;28.07;100740.58;3733181;78;99161;-84
2022/05/16 15:33:49;;;;;;;6.47;2.10;;;;;;;26.23;30.07;100733.55;3711145;78;99532;-87
2022/05/16 15:38:50;;;;;;;4.30;1.40;;;;;;;26.15;30.35;100727.46;3686213;78;32510;-85
2022/05/16 15:43:52;;;;;;;5.47;1.57;;;;;;;25.12;31.48;100717.73;3720069;78;98748;-83
2022/05/16 15:48:53;;;;;;;8.53;2.37;;;;;;;25.12;31.48;100717.73;3732811;78;98752;-84
2022/05/16 15:53:54;;;;;;;8.83;1.50;;;;;;;24.55;30.17;100710.90;3731102;78;98797;-84
2022/05/16 15:58:55;;;;;;;7.20;1.98;;;;;;;24.16;30.63;100707.49;3725454;78;98751;-85
2022/05/16 16:09:17;;;;;;;5.42;1.42;;;;;;;24.05;31.86;100695.88;3732023;78;26658;-84
2022/05/16 16:14:21;;;;;;;4.53;1.70;;;;;;;23.67;31.59;100698.16;3728349;78;98693;-83
2022/05/16 16:19:28;;;;;;;5.67;1.67;;;;;;;23.64;32.69;100696.89;3805409;76;98664;-84
2022/05/16 16:24:30;;;;;;;9.08;1.80;;;;;;;23.39;31.91;100692.81;3802746;76;98737;-85
2022/05/16 16:29:31;;;;;;;4.50;1.67;;;;;;;23.26;32.62;100697.08;3803510;76;98811;-85
2022/05/16 16:34:33;;;;;;;4.15;1.60;;;;;;;22.86;31.86;100699.51;3809710;76;98719;-85
2022/05/16 16:39:34;;;;;;;3.08;1.50;;;;;;;22.54;32.84;100704.02;3798761;76;27381;-85
2022/05/16 16:44:35;;;;;;;5.75;2.35;;;;;;;22.42;33.02;100702.78;3799714;76;98687;-85
2022/05/16 16:49:36;;;;;;;6.12;1.70;;;;;;;22.17;33.39;100697.19;3787223;76;98705;-85
2022/05/16 17:00:20;;;;;;;5.37;1.70;;;;;;;21.80;33.58;100716.16;3787877;76;99046;-87
2022/05/16 17:05:28;;;;;;;9.33;1.98;;;;;;;21.57;33.62;100703.82;3770352;77;98821;-87
2022/05/16 17:10:40;;;;;;;5.17;1.42;;;;;;;21.42;34.21;100702.66;3777282;77;99309;-86
2022/05/16 17:15:42;;;;;;;5.90;1.82;;;;;;;21.20;34.26;100685.52;3776599;77;26046;-85
2022/05/16 17:20:44;;;;;;;4.87;1.37;;;;;;;21.25;34.87;100709.55;3775235;77;133139;-85
2022/05/16 17:25:48;;;;;;;5.22;1.57;;;;;;;21.05;35.08;100708.92;3751929;78;99302;-84
2022/05/16 17:30:52;;;;;;;3.15;1.50;;;;;;;20.89;35.13;100708.95;3746929;78;99497;-83
2022/05/16 17:35:53;;;;;;;7.80;1.75;;;;;;;20.75;35.66;100712.08;3765948;77;99199;-84
2022/05/16 17:40:55;;;;;;;5.20;1.60;;;;;;;20.59;36.09;100709.93;3780804;77;98852;-85
2022/05/16 17:45:56;;;;;;;6.90;2.00;;;;;;;20.50;36.35;100715.34;3739631;78;99262;-84
2022/05/16 17:50:59;;;;;;;8.83;1.80;;;;;;;20.36;36.84;100722.06;3761578;75;98997;-84
2022/05/16 17:56:02;;;;;;;5.92;1.70;;;;;;;20.19;36.76;100716.88;3798018;76;98607;-84
2022/05/16 18:01:03;;;;;;;4.40;1.87;;;;;;;20.00;37.22;100720.50;3760875;76;98913;-84
2022/05/16 18:06:04;;;;;;;5.40;1.82;;;;;;;19.84;37.67;100727.45;3748106;76;99370;-85
2022/05/16 18:16:25;;;;;;;7.92;2.08;;;;;;;19.51;38.05;100731.34;3794818;76;99280;-84
2022/05/16 18:21:26;;;;;;;6.87;2.42;;;;;;;19.33;38.48;100733.09;3775508;76;98893;-86
2022/05/16 18:26:28;;;;;;;7.05;1.85;;;;;;;19.16;38.68;100736.98;3802949;76;99014;-84
2022/05/16 18:31:30;;;;;;;7.80;2.25;;;;;;;19.01;38.90;100741.87;3775067;76;98947;-83
2022/05/16 18:36:32;;;;;;;7.20;1.87;;;;;;;18.84;39.04;100745.73;3794936;76;99216;-83
2022/05/16 18:52:24;;;;;;;6.20;2.02;;;;;;;18.38;39.67;100748.51;3801544;76;98800;-82
2022/05/16 18:57:25;;;;;;;6.25;2.20;;;;;;;18.06;40.16;100754.53;3814513;76;32473;-83
2022/05/16 19:02:26;;;;;;;6.95;1.70;;;;;;;18.06;40.16;100754.53;3803408;76;98973;-83
2022/05/16 19:07:26;;;;;;;6.90;1.80;;;;;;;17.95;40.34;100758.07;3822743;76;98749;-82
2022/05/16 19:12:28;;;;;;;5.12;1.82;;;;;;;17.82;40.43;100759.81;3779286;76;99404;-83
2022/05/16 19:17:32;;;;;;;7.08;2.02;;;;;;;17.72;40.65;100756.56;3807315;76;99160;-84
2022/05/16 19:22:34;;;;;;;5.20;1.70;;;;;;;17.66;41.10;100769.36;3788743;76;99306;-82
2022/05/16 19:31:58;;;;;;;5.25;1.45;;;;;;;17.57;41.24;100773.27;3807028;76;32478;-83
2022/05/16 19:32:40;;;;;;;5.85;1.80;;;;;;;17.50;41.79;100776.73;3790692;76;98774;-81
2022/05/16 19:37:43;;;;;;;4.75;1.52;;;;;;;17.41;42.08;100775.05;3749349;77;99217;-82
2022/05/16 19:42:44;;;;;;;5.87;1.67;;;;;;;17.31;42.16;100775.91;3783408;76;98839;-84
2022/05/16 19:47:45;;;;;;;6.05;1.77;;;;;;;17.21;42.64;100774.83;3806130;76;98845;-81
2022/05/16 19:52:46;;;;;;;4.80;1.82;;;;;;;17.12;42.74;100772.34;3791540;76;98802;-81
2022/05/16 19:57:48;;;;;;;4.83;1.70;;;;;;;17.02;42.93;100767.67;3800717;76;98742;-84
2022/05/16 20:02:49;;;;;;;5.08;1.72;;;;;;;16.94;43.02;100775.30;3783202;76;99065;-87
2022/05/16 20:07:51;;;;;;;5.05;1.85;;;;;;;16.84;43.21;100763.66;3796903;76;98646;-84
2022/05/16 20:12:52;;;;;;;8.60;2.58;;;;;;;16.77;43.35;100766.52;3788842;76;99270;-85
2022/05/16 20:17:53;;;;;;;8.40;2.02;;;;;;;16.68;43.55;100764.02;3734238;76;98877;-85
2022/05/16 20:28:17;;;;;;;5.10;1.82;;;;;;;16.50;43.73;100757.80;3781390;77;99100;-84
2022/05/16 20:33:19;;;;;;;4.85;1.65;;;;;;;16.41;43.99;100760.27;3774848;77;98839;-85
2022/05/16 20:38:23;;;;;;;6.12;1.80;;;;;;;16.34;43.85;100762.45;3787632;77;99039;-85
2022/05/16 20:43:24;;;;;;;5.65;1.95;;;;;;;16.28;43.85;100762.70;3796403;76;98725;-85
2022/05/16 20:48:25;;;;;;;5.40;2.00;;;;;;;16.24;43.74;100763.31;3787907;77;98916;-86
2022/05/16 20:53:28;;;;;;;7.72;1.87;;;;;;;16.17;43.94;100763.95;3769152;77;99104;-86
2022/05/16 20:58:32;;;;;;;9.25;2.25;;;;;;;16.09;43.97;100761.81;3788222;77;99276;-86
2022/05/16 21:03:33;;;;;;;6.67;1.92;;;;;;;16.02;44.14;100772.97;3785802;77;98790;-86
2022/05/16 21:08:33;;;;;;;6.37;1.70;;;;;;;15.95;44.21;100768.84;3788023;77;98946;-87
2022/05/16 21:13:35;;;;;;;8.58;1.90;;;;;;;15.89;44.38;100765.50;3769449;76;99065;-86
2022/05/16 21:18:36;;;;;;;7.67;2.20;;;;;;;15.83;44.84;100758.22;3788758;76;98830;-86
2022/05/16 21:23:37;;;;;;;8.70;2.20;;;;;;;15.76;45.03;100756.84;3784543;76;98784;-86
2022/05/16 21:28:39;;;;;;;5.25;2.70;;;;;;;15.68;45.24;100756.69;3789714;77;99101;-86
2022/05/16 21:33:42;;;;;;;9.53;2.62;;;;;;;15.60;45.41;100758.52;3773034;77;98455;-86
2022/05/16 21:38:43;;;;;;;6.85;2.75;;;;;;;15.54;45.68;100760.90;3802692;77;98398;-86
2022/05/16 21:49:05;;;;;;;6.28;2.22;;;;;;;15.39;46.37;100761.36;3814326;76;98709;-86
2022/05/16 21:54:06;;;;;;;8.93;2.40;;;;;;;15.31;46.48;100766.09;3770972;76;99190;-87
2022/05/16 21:59:07;;;;;;;8.37;2.63;;;;;;;15.26;46.74;100765.73;3805399;76;98779;-86
2022/05/16 22:04:08;;;;;;;12.30;2.77;;;;;;;15.19;47.10;100758.80;3815116;76;98679;-86
2022/05/16 22:09:10;;;;;;;7.80;2.95;;;;;;;15.14;47.58;100764.75;3822305;76;32249;-87
2022/05/16 22:14:12;;;;;;;7.33;2.60;;;;;;;15.07;47.53;100766.96;3800240;76;98581;-87
2022/05/16 22:19:13;;;;;;;13.00;3.60;;;;;;;15.01;47.65;100767.17;3776795;76;98680;-87
2022/05/16 22:24:17;;;;;;;8.78;2.83;;;;;;;14.95;47.81;100777.08;3759407;77;98920;-87
2022/05/16 22:29:19;;;;;;;8.25;2.95;;;;;;;14.89;48.30;100775.10;3778458;77;98840;-87
2022/05/16 22:34:20;;;;;;;9.03;2.58;;;;;;;14.85;48.38;100784.80;3748654;77;98426;-86
2022/05/16 22:39:21;;;;;;;7.05;2.50;;;;;;;14.79;48.51;100781.44;3738537;78;32161;-86
2022/05/16 22:44:22;;;;;;;13.45;2.85;;;;;;;14.73;48.71;100779.67;3748950;77;99103;-86
2022/05/16 22:49:23;;;;;;;8.65;2.85;;;;;;;14.69;49.08;100785.00;3772630;77;98119;-86
2022/05/16 22:54:25;;;;;;;5.78;2.52;;;;;;;14.65;49.22;100780.04;3723575;78;98775;-86
2022/05/16 22:59:26;;;;;;;9.35;3.00;;;;;;;14.62;49.35;100787.19;3766270;77;98853;-86
2022/05/16 23:04:27;;;;;;;10.18;2.70;;;;;;;14.58;49.55;100778.66;3786176;76;99157;-86
2022/05/16 23:09:28;;;;;;;8.73;2.70;;;;;;;14.52;49.40;100778.28;3816552;76;27213;-86
2022/05/16 23:14:30;;;;;;;8.23;2.87;;;;;;;14.49;49.15;100776.28;3791133;76;99023;-86
2022/05/16 23:19:31;;;;;;;8.33;3.20;;;;;;;14.49;49.09;100781.82;3799901;76;98532;-87
2022/05/16 23:24:32;;;;;;;9.50;3.08;;;;;;;14.48;49.00;100778.86;3762027;77;98783;-86
2022/05/16 23:29:33;;;;;;;8.07;3.10;;;;;;;14.47;49.01;100777.86;3771319;78;99195;-85
2022/05/16 23:34:35;;;;;;;5.58;2.40;;;;;;;14.42;49.83;100781.83;3718196;77;99116;-84
2022/05/16 23:39:36;;;;;;;7.33;2.83;;;;;;;14.39;49.56;100772.13;3673386;79;29583;-85
2022/05/16 23:44:39;;;;;;;6.62;2.45;;;;;;;14.38;49.33;100775.48;3671584;79;99068;-85
2022/05/16 23:49:42;;;;;;;6.65;2.55;;;;;;;14.38;49.21;100774.09;3701617;78;98925;-86
2022/05/16 23:54:43;;;;;;;8.10;2.50;;;;;;;14.37;49.33;100777.25;3691851;78;98868;-86
2022/05/16 23:59:45;;;;;;;9.73;2.97;;;;;;;14.32;49.52;100765.98;3722363;79;98863;-86
